To NAV CANADA Home Page Login to a new session Search on AWWS site Feedback and Comments Disclaimer Vers la page française équivalente Tips FAQ What's new on the site To the Forecasts and Observations / NOTAM section To "File a Flight Plan" website Publications and other links Update of the User's profile FIC Telephone Numbers My Weather Data Folder Route Weather Data Regional Weather Data Local Weather Data To the Forecasts and Observations / NOTAM section
Request Generated 08/22/2017 at 01:36:45 UTC . Weather information available at that time is displayed.

METAR/TAF

HOPE/BC    (show WxCam)

METAR CYHE 220100Z AUTO 30010G16KT 260V330 9SM CLR 27/13 A2999 RMK
SLP156 DENSITY ALT 1400FT=
METAR CYHE 220000Z AUTO 28008G17KT 250V320 9SM CLR 28/13 A3000 RMK
SLP161 DENSITY ALT 1500FT=
METAR CYHE 212300Z AUTO 30009G15KT 270V010 9SM CLR 28/11 A3001 RMK
SLP165 DENSITY ALT 1500FT=

CYHE - No TAF is issued for this station

Your time UTC time
Weather data provided by Environment Canada and NAV CANADA